sensor_id;sensor_type;location;lat;lon;timestamp;P1;durP1;ratioP1;P2;durP2;ratioP2
10461;SDS011;5278;42.656;23.374;2023-05-07T00:01:41;5.20;;;4.13;;
10461;SDS011;5278;42.656;23.374;2023-05-07T00:04:10;5.07;;;4.10;;
10461;SDS011;5278;42.656;23.374;2023-05-07T00:06:38;5.97;;;5.10;;
10461;SDS011;5278;42.656;23.374;2023-05-07T00:09:05;5.83;;;5.20;;
10461;SDS011;5278;42.656;23.374;2023-05-07T00:11:33;7.70;;;5.57;;
10461;SDS011;5278;42.656;23.374;2023-05-07T00:14:00;8.93;;;6.17;;
10461;SDS011;5278;42.656;23.374;2023-05-07T00:16:27;8.47;;;5.47;;
10461;SDS011;5278;42.656;23.374;2023-05-07T00:18:54;9.23;;;6.40;;
10461;SDS011;5278;42.656;23.374;2023-05-07T00:21:23;10.40;;;6.77;;
10461;SDS011;5278;42.656;23.374;2023-05-07T00:23:51;10.70;;;7.07;;
10461;SDS011;5278;42.656;23.374;2023-05-07T00:26:19;7.23;;;6.23;;
10461;SDS011;5278;42.656;23.374;2023-05-07T00:28:45;9.40;;;6.40;;
10461;SDS011;5278;42.656;23.374;2023-05-07T00:31:12;12.33;;;6.63;;
10461;SDS011;5278;42.656;23.374;2023-05-07T00:33:39;8.33;;;7.30;;
10461;SDS011;5278;42.656;23.374;2023-05-07T00:36:06;7.63;;;6.33;;
10461;SDS011;5278;42.656;23.374;2023-05-07T00:38:35;7.90;;;6.57;;
10461;SDS011;5278;42.656;23.374;2023-05-07T00:41:02;9.70;;;6.83;;
10461;SDS011;5278;42.656;23.374;2023-05-07T00:43:29;8.40;;;6.67;;
10461;SDS011;5278;42.656;23.374;2023-05-07T00:45:57;10.43;;;6.00;;
10461;SDS011;5278;42.656;23.374;2023-05-07T00:48:24;7.83;;;5.40;;
10461;SDS011;5278;42.656;23.374;2023-05-07T00:50:52;8.27;;;5.43;;
10461;SDS011;5278;42.656;23.374;2023-05-07T00:53:19;6.43;;;5.60;;
10461;SDS011;5278;42.656;23.374;2023-05-07T00:55:48;6.83;;;5.03;;
10461;SDS011;5278;42.656;23.374;2023-05-07T00:58:16;12.10;;;5.47;;
10461;SDS011;5278;42.656;23.374;2023-05-07T01:00:43;7.97;;;5.00;;
10461;SDS011;5278;42.656;23.374;2023-05-07T01:03:10;6.97;;;4.27;;
10461;SDS011;5278;42.656;23.374;2023-05-07T01:05:37;5.87;;;4.30;;
10461;SDS011;5278;42.656;23.374;2023-05-07T01:08:04;7.37;;;4.17;;
10461;SDS011;5278;42.656;23.374;2023-05-07T01:10:32;4.67;;;4.27;;
10461;SDS011;5278;42.656;23.374;2023-05-07T01:13:00;5.17;;;4.03;;
10461;SDS011;5278;42.656;23.374;2023-05-07T01:15:28;5.63;;;4.23;;
10461;SDS011;5278;42.656;23.374;2023-05-07T01:17:55;4.73;;;4.33;;
10461;SDS011;5278;42.656;23.374;2023-05-07T01:20:22;6.87;;;4.57;;
10461;SDS011;5278;42.656;23.374;2023-05-07T01:22:51;5.83;;;4.17;;
10461;SDS011;5278;42.656;23.374;2023-05-07T01:25:19;5.60;;;4.87;;
10461;SDS011;5278;42.656;23.374;2023-05-07T01:27:46;4.40;;;4.00;;
10461;SDS011;5278;42.656;23.374;2023-05-07T01:30:13;5.03;;;4.63;;
10461;SDS011;5278;42.656;23.374;2023-05-07T01:32:41;5.10;;;4.60;;
10461;SDS011;5278;42.656;23.374;2023-05-07T01:35:13;6.50;;;5.10;;
10461;SDS011;5278;42.656;23.374;2023-05-07T01:37:44;10.63;;;5.67;;
10461;SDS011;5278;42.656;23.374;2023-05-07T01:40:14;5.17;;;4.67;;
10461;SDS011;5278;42.656;23.374;2023-05-07T01:42:41;6.57;;;5.47;;
10461;SDS011;5278;42.656;23.374;2023-05-07T01:45:10;6.37;;;5.57;;
10461;SDS011;5278;42.656;23.374;2023-05-07T01:47:37;5.90;;;5.10;;
10461;SDS011;5278;42.656;23.374;2023-05-07T01:50:05;6.83;;;5.33;;
10461;SDS011;5278;42.656;23.374;2023-05-07T01:52:35;6.53;;;5.87;;
10461;SDS011;5278;42.656;23.374;2023-05-07T01:55:04;9.07;;;6.77;;
10461;SDS011;5278;42.656;23.374;2023-05-07T01:57:33;7.33;;;6.43;;
10461;SDS011;5278;42.656;23.374;2023-05-07T02:00:00;8.73;;;6.70;;
10461;SDS011;5278;42.656;23.374;2023-05-07T02:02:31;9.23;;;6.50;;
10461;SDS011;5278;42.656;23.374;2023-05-07T02:04:59;7.67;;;6.87;;
10461;SDS011;5278;42.656;23.374;2023-05-07T02:07:26;8.77;;;6.37;;
10461;SDS011;5278;42.656;23.374;2023-05-07T02:09:53;8.13;;;6.57;;
10461;SDS011;5278;42.656;23.374;2023-05-07T02:12:20;7.10;;;6.40;;
10461;SDS011;5278;42.656;23.374;2023-05-07T02:14:49;7.87;;;7.00;;
10461;SDS011;5278;42.656;23.374;2023-05-07T02:17:17;8.87;;;6.73;;
10461;SDS011;5278;42.656;23.374;2023-05-07T02:19:44;9.67;;;6.93;;
10461;SDS011;5278;42.656;23.374;2023-05-07T02:22:11;8.13;;;7.17;;
10461;SDS011;5278;42.656;23.374;2023-05-07T02:24:38;10.00;;;7.63;;
10461;SDS011;5278;42.656;23.374;2023-05-07T02:27:06;8.37;;;7.57;;
10461;SDS011;5278;42.656;23.374;2023-05-07T02:29:32;9.03;;;7.53;;
10461;SDS011;5278;42.656;23.374;2023-05-07T02:32:01;8.37;;;7.57;;
10461;SDS011;5278;42.656;23.374;2023-05-07T02:34:28;9.63;;;8.50;;
10461;SDS011;5278;42.656;23.374;2023-05-07T02:36:54;8.50;;;7.67;;
10461;SDS011;5278;42.656;23.374;2023-05-07T02:39:22;8.00;;;7.20;;
10461;SDS011;5278;42.656;23.374;2023-05-07T02:41:48;8.83;;;7.93;;
10461;SDS011;5278;42.656;23.374;2023-05-07T02:44:16;9.63;;;8.27;;
10461;SDS011;5278;42.656;23.374;2023-05-07T02:46:42;10.67;;;7.30;;
10461;SDS011;5278;42.656;23.374;2023-05-07T02:49:12;12.57;;;8.30;;
10461;SDS011;5278;42.656;23.374;2023-05-07T02:51:39;9.17;;;7.43;;
10461;SDS011;5278;42.656;23.374;2023-05-07T02:54:06;8.10;;;7.30;;
10461;SDS011;5278;42.656;23.374;2023-05-07T02:56:33;8.37;;;7.57;;
10461;SDS011;5278;42.656;23.374;2023-05-07T02:59:00;9.10;;;7.80;;
10461;SDS011;5278;42.656;23.374;2023-05-07T03:01:27;8.30;;;7.43;;
10461;SDS011;5278;42.656;23.374;2023-05-07T03:03:54;10.17;;;7.83;;
10461;SDS011;5278;42.656;23.374;2023-05-07T03:06:23;12.67;;;8.70;;
10461;SDS011;5278;42.656;23.374;2023-05-07T03:08:50;10.67;;;8.03;;
10461;SDS011;5278;42.656;23.374;2023-05-07T03:11:17;9.33;;;8.23;;
10461;SDS011;5278;42.656;23.374;2023-05-07T03:13:44;9.17;;;8.23;;
10461;SDS011;5278;42.656;23.374;2023-05-07T03:16:11;10.53;;;9.00;;
10461;SDS011;5278;42.656;23.374;2023-05-07T03:18:38;9.13;;;8.17;;
10461;SDS011;5278;42.656;23.374;2023-05-07T03:21:05;11.63;;;8.93;;
10461;SDS011;5278;42.656;23.374;2023-05-07T03:23:33;11.20;;;9.00;;
10461;SDS011;5278;42.656;23.374;2023-05-07T03:26:00;11.57;;;8.57;;
10461;SDS011;5278;42.656;23.374;2023-05-07T03:28:27;11.27;;;8.87;;
10461;SDS011;5278;42.656;23.374;2023-05-07T03:30:55;11.67;;;9.73;;
10461;SDS011;5278;42.656;23.374;2023-05-07T03:33:21;10.80;;;9.67;;
10461;SDS011;5278;42.656;23.374;2023-05-07T03:35:48;12.53;;;10.27;;
10461;SDS011;5278;42.656;23.374;2023-05-07T03:38:15;12.67;;;10.47;;
10461;SDS011;5278;42.656;23.374;2023-05-07T03:40:44;13.90;;;10.33;;
10461;SDS011;5278;42.656;23.374;2023-05-07T03:43:11;11.70;;;10.47;;
10461;SDS011;5278;42.656;23.374;2023-05-07T03:45:39;13.73;;;11.07;;
10461;SDS011;5278;42.656;23.374;2023-05-07T03:48:06;12.00;;;10.47;;
10461;SDS011;5278;42.656;23.374;2023-05-07T03:50:33;12.43;;;10.00;;
10461;SDS011;5278;42.656;23.374;2023-05-07T03:53:00;15.10;;;11.00;;
10461;SDS011;5278;42.656;23.374;2023-05-07T03:55:27;13.03;;;11.00;;
10461;SDS011;5278;42.656;23.374;2023-05-07T03:57:55;14.27;;;11.13;;
10461;SDS011;5278;42.656;23.374;2023-05-07T04:00:22;12.03;;;10.20;;
10461;SDS011;5278;42.656;23.374;2023-05-07T04:02:50;12.13;;;10.63;;
10461;SDS011;5278;42.656;23.374;2023-05-07T04:05:17;13.70;;;10.90;;
10461;SDS011;5278;42.656;23.374;2023-05-07T04:07:44;11.50;;;9.93;;
10461;SDS011;5278;42.656;23.374;2023-05-07T04:10:11;13.53;;;10.00;;
10461;SDS011;5278;42.656;23.374;2023-05-07T04:12:39;14.33;;;10.53;;
10461;SDS011;5278;42.656;23.374;2023-05-07T04:15:09;13.37;;;10.40;;
10461;SDS011;5278;42.656;23.374;2023-05-07T04:17:36;9.57;;;7.87;;
10461;SDS011;5278;42.656;23.374;2023-05-07T04:20:04;10.13;;;7.90;;
10461;SDS011;5278;42.656;23.374;2023-05-07T04:22:32;11.90;;;8.67;;
10461;SDS011;5278;42.656;23.374;2023-05-07T04:24:59;11.27;;;7.70;;
10461;SDS011;5278;42.656;23.374;2023-05-07T04:27:27;11.83;;;7.83;;
10461;SDS011;5278;42.656;23.374;2023-05-07T04:29:54;9.73;;;7.63;;
10461;SDS011;5278;42.656;23.374;2023-05-07T04:32:23;10.03;;;7.03;;
10461;SDS011;5278;42.656;23.374;2023-05-07T04:34:51;7.53;;;6.80;;
10461;SDS011;5278;42.656;23.374;2023-05-07T04:37:18;9.43;;;7.43;;
10461;SDS011;5278;42.656;23.374;2023-05-07T04:39:45;8.33;;;7.53;;
10461;SDS011;5278;42.656;23.374;2023-05-07T04:42:14;10.30;;;8.27;;
10461;SDS011;5278;42.656;23.374;2023-05-07T04:44:43;8.43;;;7.53;;
10461;SDS011;5278;42.656;23.374;2023-05-07T04:47:10;9.47;;;7.83;;
10461;SDS011;5278;42.656;23.374;2023-05-07T04:49:38;8.73;;;7.47;;
10461;SDS011;5278;42.656;23.374;2023-05-07T04:52:05;9.40;;;7.43;;
10461;SDS011;5278;42.656;23.374;2023-05-07T04:54:32;10.30;;;7.40;;
10461;SDS011;5278;42.656;23.374;2023-05-07T04:56:59;9.43;;;7.57;;
10461;SDS011;5278;42.656;23.374;2023-05-07T04:59:26;10.43;;;7.87;;
10461;SDS011;5278;42.656;23.374;2023-05-07T05:01:53;8.83;;;7.67;;
10461;SDS011;5278;42.656;23.374;2023-05-07T05:04:20;9.27;;;8.37;;
10461;SDS011;5278;42.656;23.374;2023-05-07T05:06:48;8.83;;;7.80;;
10461;SDS011;5278;42.656;23.374;2023-05-07T05:09:15;9.83;;;8.83;;
10461;SDS011;5278;42.656;23.374;2023-05-07T05:11:42;9.77;;;8.40;;
10461;SDS011;5278;42.656;23.374;2023-05-07T05:14:10;9.37;;;8.23;;
10461;SDS011;5278;42.656;23.374;2023-05-07T05:16:37;13.70;;;8.27;;
10461;SDS011;5278;42.656;23.374;2023-05-07T05:19:04;9.40;;;7.73;;
10461;SDS011;5278;42.656;23.374;2023-05-07T05:21:31;8.63;;;7.73;;
10461;SDS011;5278;42.656;23.374;2023-05-07T05:23:59;9.43;;;7.50;;
10461;SDS011;5278;42.656;23.374;2023-05-07T05:26:26;9.57;;;8.57;;
10461;SDS011;5278;42.656;23.374;2023-05-07T05:28:53;9.77;;;8.13;;
10461;SDS011;5278;42.656;23.374;2023-05-07T05:31:20;9.57;;;8.57;;
10461;SDS011;5278;42.656;23.374;2023-05-07T05:33:48;11.30;;;8.50;;
10461;SDS011;5278;42.656;23.374;2023-05-07T05:36:14;9.77;;;8.43;;
10461;SDS011;5278;42.656;23.374;2023-05-07T05:38:41;9.60;;;8.33;;
10461;SDS011;5278;42.656;23.374;2023-05-07T05:41:10;8.73;;;7.83;;
10461;SDS011;5278;42.656;23.374;2023-05-07T05:43:37;9.00;;;8.10;;
10461;SDS011;5278;42.656;23.374;2023-05-07T05:46:04;9.67;;;7.63;;
10461;SDS011;5278;42.656;23.374;2023-05-07T05:48:31;9.47;;;8.20;;
10461;SDS011;5278;42.656;23.374;2023-05-07T05:50:58;9.80;;;7.00;;
10461;SDS011;5278;42.656;23.374;2023-05-07T05:53:25;8.07;;;7.27;;
10461;SDS011;5278;42.656;23.374;2023-05-07T05:55:52;9.10;;;6.80;;
10461;SDS011;5278;42.656;23.374;2023-05-07T05:58:21;7.53;;;6.80;;
10461;SDS011;5278;42.656;23.374;2023-05-07T06:00:48;8.60;;;7.30;;
10461;SDS011;5278;42.656;23.374;2023-05-07T06:03:17;7.87;;;6.83;;
10461;SDS011;5278;42.656;23.374;2023-05-07T06:05:44;9.80;;;7.70;;
10461;SDS011;5278;42.656;23.374;2023-05-07T06:08:11;8.43;;;7.60;;
10461;SDS011;5278;42.656;23.374;2023-05-07T06:10:38;9.97;;;8.17;;
10461;SDS011;5278;42.656;23.374;2023-05-07T06:13:05;9.30;;;6.90;;
10461;SDS011;5278;42.656;23.374;2023-05-07T06:15:33;9.30;;;8.33;;
10461;SDS011;5278;42.656;23.374;2023-05-07T06:18:00;9.17;;;7.43;;
10461;SDS011;5278;42.656;23.374;2023-05-07T06:20:27;8.60;;;7.50;;
10461;SDS011;5278;42.656;23.374;2023-05-07T06:22:55;7.70;;;6.93;;
10461;SDS011;5278;42.656;23.374;2023-05-07T06:25:22;14.53;;;9.70;;
10461;SDS011;5278;42.656;23.374;2023-05-07T06:27:49;10.57;;;9.57;;
10461;SDS011;5278;42.656;23.374;2023-05-07T06:30:16;8.63;;;7.80;;
10461;SDS011;5278;42.656;23.374;2023-05-07T06:32:45;9.93;;;7.97;;
10461;SDS011;5278;42.656;23.374;2023-05-07T06:35:11;9.67;;;7.50;;
10461;SDS011;5278;42.656;23.374;2023-05-07T06:37:39;9.97;;;8.97;;
10461;SDS011;5278;42.656;23.374;2023-05-07T06:40:08;14.63;;;10.43;;
10461;SDS011;5278;42.656;23.374;2023-05-07T06:42:35;8.57;;;7.77;;
10461;SDS011;5278;42.656;23.374;2023-05-07T06:45:03;9.50;;;7.37;;
10461;SDS011;5278;42.656;23.374;2023-05-07T06:47:30;8.93;;;7.50;;
10461;SDS011;5278;42.656;23.374;2023-05-07T06:49:59;10.00;;;7.73;;
10461;SDS011;5278;42.656;23.374;2023-05-07T06:52:26;9.87;;;7.50;;
10461;SDS011;5278;42.656;23.374;2023-05-07T06:54:53;8.13;;;6.43;;
10461;SDS011;5278;42.656;23.374;2023-05-07T06:57:19;9.33;;;6.57;;
10461;SDS011;5278;42.656;23.374;2023-05-07T06:59:46;9.50;;;7.40;;
10461;SDS011;5278;42.656;23.374;2023-05-07T07:02:13;8.07;;;6.90;;
10461;SDS011;5278;42.656;23.374;2023-05-07T07:04:40;10.90;;;7.60;;
10461;SDS011;5278;42.656;23.374;2023-05-07T07:07:09;7.03;;;6.27;;
10461;SDS011;5278;42.656;23.374;2023-05-07T07:09:35;7.70;;;6.90;;
10461;SDS011;5278;42.656;23.374;2023-05-07T07:12:03;7.80;;;6.97;;
10461;SDS011;5278;42.656;23.374;2023-05-07T07:14:30;7.30;;;6.60;;
10461;SDS011;5278;42.656;23.374;2023-05-07T07:16:58;7.43;;;6.37;;
10461;SDS011;5278;42.656;23.374;2023-05-07T07:19:25;8.97;;;6.23;;
10461;SDS011;5278;42.656;23.374;2023-05-07T07:21:52;9.33;;;6.77;;
10461;SDS011;5278;42.656;23.374;2023-05-07T07:24:21;7.43;;;6.67;;
10461;SDS011;5278;42.656;23.374;2023-05-07T07:26:48;9.03;;;6.40;;
10461;SDS011;5278;42.656;23.374;2023-05-07T07:29:15;6.67;;;6.10;;
10461;SDS011;5278;42.656;23.374;2023-05-07T07:31:43;7.40;;;6.70;;
10461;SDS011;5278;42.656;23.374;2023-05-07T07:34:10;9.10;;;6.53;;
10461;SDS011;5278;42.656;23.374;2023-05-07T07:36:37;9.63;;;6.87;;
10461;SDS011;5278;42.656;23.374;2023-05-07T07:39:04;8.00;;;6.27;;
10461;SDS011;5278;42.656;23.374;2023-05-07T07:41:32;8.77;;;6.70;;
10461;SDS011;5278;42.656;23.374;2023-05-07T07:43:59;8.20;;;6.90;;
10461;SDS011;5278;42.656;23.374;2023-05-07T07:46:28;10.80;;;6.60;;
10461;SDS011;5278;42.656;23.374;2023-05-07T07:48:55;7.03;;;6.33;;
10461;SDS011;5278;42.656;23.374;2023-05-07T07:51:24;8.23;;;6.35;;
10461;SDS011;5278;42.656;23.374;2023-05-07T07:53:51;8.43;;;7.38;;
10461;SDS011;5278;42.656;23.374;2023-05-07T07:56:18;9.80;;;6.70;;
10461;SDS011;5278;42.656;23.374;2023-05-07T07:58:47;10.65;;;7.05;;
10461;SDS011;5278;42.656;23.374;2023-05-07T08:01:14;7.20;;;5.93;;
10461;SDS011;5278;42.656;23.374;2023-05-07T08:03:41;7.50;;;6.70;;
10461;SDS011;5278;42.656;23.374;2023-05-07T08:06:08;7.88;;;5.88;;
10461;SDS011;5278;42.656;23.374;2023-05-07T08:08:35;8.85;;;6.35;;
10461;SDS011;5278;42.656;23.374;2023-05-07T08:11:02;7.70;;;6.90;;
10461;SDS011;5278;42.656;23.374;2023-05-07T08:13:29;8.70;;;6.93;;
10461;SDS011;5278;42.656;23.374;2023-05-07T08:15:58;8.25;;;6.28;;
10461;SDS011;5278;42.656;23.374;2023-05-07T08:18:25;7.10;;;6.18;;
10461;SDS011;5278;42.656;23.374;2023-05-07T08:20:54;19.48;;;8.02;;
10461;SDS011;5278;42.656;23.374;2023-05-07T08:23:21;10.68;;;7.50;;
10461;SDS011;5278;42.656;23.374;2023-05-07T08:25:48;8.07;;;7.28;;
10461;SDS011;5278;42.656;23.374;2023-05-07T08:28:16;9.13;;;7.43;;
10461;SDS011;5278;42.656;23.374;2023-05-07T08:30:43;11.00;;;8.05;;
10461;SDS011;5278;42.656;23.374;2023-05-07T08:33:11;10.48;;;7.65;;
10461;SDS011;5278;42.656;23.374;2023-05-07T08:35:38;9.02;;;7.57;;
10461;SDS011;5278;42.656;23.374;2023-05-07T08:38:05;8.57;;;7.05;;
10461;SDS011;5278;42.656;23.374;2023-05-07T08:40:33;7.97;;;7.28;;
10461;SDS011;5278;42.656;23.374;2023-05-07T08:43:03;7.22;;;6.45;;
10461;SDS011;5278;42.656;23.374;2023-05-07T08:45:32;7.90;;;7.13;;
10461;SDS011;5278;42.656;23.374;2023-05-07T08:48:02;8.45;;;6.20;;
10461;SDS011;5278;42.656;23.374;2023-05-07T08:50:33;6.22;;;5.63;;
10461;SDS011;5278;42.656;23.374;2023-05-07T08:53:03;5.15;;;4.70;;
10461;SDS011;5278;42.656;23.374;2023-05-07T08:55:30;8.48;;;5.28;;
10461;SDS011;5278;42.656;23.374;2023-05-07T08:57:58;6.93;;;5.68;;
10461;SDS011;5278;42.656;23.374;2023-05-07T09:00:26;5.20;;;4.65;;
10461;SDS011;5278;42.656;23.374;2023-05-07T09:02:53;6.53;;;4.63;;
10461;SDS011;5278;42.656;23.374;2023-05-07T09:05:20;9.38;;;4.57;;
10461;SDS011;5278;42.656;23.374;2023-05-07T09:07:48;5.80;;;4.45;;
10461;SDS011;5278;42.656;23.374;2023-05-07T09:10:15;4.78;;;4.38;;
10461;SDS011;5278;42.656;23.374;2023-05-07T09:12:42;4.88;;;4.00;;
10461;SDS011;5278;42.656;23.374;2023-05-07T09:15:09;4.20;;;3.70;;
10461;SDS011;5278;42.656;23.374;2023-05-07T09:17:37;6.13;;;4.13;;
10461;SDS011;5278;42.656;23.374;2023-05-07T09:20:06;16.42;;;14.70;;
10461;SDS011;5278;42.656;23.374;2023-05-07T09:22:35;11.98;;;7.90;;
10461;SDS011;5278;42.656;23.374;2023-05-07T09:25:05;6.07;;;5.47;;
10461;SDS011;5278;42.656;23.374;2023-05-07T09:27:34;5.80;;;4.80;;
10461;SDS011;5278;42.656;23.374;2023-05-07T09:30:02;5.70;;;5.30;;
10461;SDS011;5278;42.656;23.374;2023-05-07T09:32:34;6.65;;;5.20;;
10461;SDS011;5278;42.656;23.374;2023-05-07T09:35:01;6.88;;;5.72;;
10461;SDS011;5278;42.656;23.374;2023-05-07T09:37:28;5.97;;;5.35;;
10461;SDS011;5278;42.656;23.374;2023-05-07T09:39:57;4.75;;;4.35;;
10461;SDS011;5278;42.656;23.374;2023-05-07T09:42:26;4.90;;;4.50;;
10461;SDS011;5278;42.656;23.374;2023-05-07T09:44:53;7.88;;;5.10;;
10461;SDS011;5278;42.656;23.374;2023-05-07T09:47:20;7.93;;;5.15;;
10461;SDS011;5278;42.656;23.374;2023-05-07T09:49:50;6.63;;;4.70;;
10461;SDS011;5278;42.656;23.374;2023-05-07T09:52:22;4.90;;;4.38;;
10461;SDS011;5278;42.656;23.374;2023-05-07T09:54:53;7.93;;;4.85;;
10461;SDS011;5278;42.656;23.374;2023-05-07T09:57:26;5.70;;;4.20;;
10461;SDS011;5278;42.656;23.374;2023-05-07T09:59:55;5.53;;;4.72;;
10461;SDS011;5278;42.656;23.374;2023-05-07T10:02:25;5.10;;;4.60;;
10461;SDS011;5278;42.656;23.374;2023-05-07T10:04:55;8.57;;;7.60;;
10461;SDS011;5278;42.656;23.374;2023-05-07T10:07:25;5.00;;;4.50;;
10461;SDS011;5278;42.656;23.374;2023-05-07T10:09:52;4.53;;;4.13;;
10461;SDS011;5278;42.656;23.374;2023-05-07T10:12:20;7.40;;;5.60;;
10461;SDS011;5278;42.656;23.374;2023-05-07T10:14:50;5.47;;;4.22;;
10461;SDS011;5278;42.656;23.374;2023-05-07T10:17:20;4.63;;;3.70;;
10461;SDS011;5278;42.656;23.374;2023-05-07T10:19:49;5.53;;;4.30;;
10461;SDS011;5278;42.656;23.374;2023-05-07T10:22:19;3.60;;;3.22;;
10461;SDS011;5278;42.656;23.374;2023-05-07T10:24:48;5.57;;;4.15;;
10461;SDS011;5278;42.656;23.374;2023-05-07T10:27:19;6.03;;;5.43;;
10461;SDS011;5278;42.656;23.374;2023-05-07T10:30:00;6.15;;;4.35;;
10461;SDS011;5278;42.656;23.374;2023-05-07T10:32:39;4.45;;;4.03;;
10461;SDS011;5278;42.656;23.374;2023-05-07T10:35:10;5.25;;;4.75;;
10461;SDS011;5278;42.656;23.374;2023-05-07T10:37:41;8.32;;;4.80;;
10461;SDS011;5278;42.656;23.374;2023-05-07T10:40:09;6.53;;;5.93;;
10461;SDS011;5278;42.656;23.374;2023-05-07T10:42:37;5.03;;;4.18;;
10461;SDS011;5278;42.656;23.374;2023-05-07T10:45:15;6.28;;;3.75;;
10461;SDS011;5278;42.656;23.374;2023-05-07T10:50:33;5.20;;;4.40;;
10461;SDS011;5278;42.656;23.374;2023-05-07T10:58:54;4.55;;;3.90;;
10461;SDS011;5278;42.656;23.374;2023-05-07T11:04:18;5.40;;;4.28;;
10461;SDS011;5278;42.656;23.374;2023-05-07T11:09:59;7.85;;;5.43;;
10461;SDS011;5278;42.656;23.374;2023-05-07T11:15:37;5.93;;;4.70;;
10461;SDS011;5278;42.656;23.374;2023-05-07T11:18:08;5.05;;;4.53;;
10461;SDS011;5278;42.656;23.374;2023-05-07T11:20:46;6.90;;;4.45;;
10461;SDS011;5278;42.656;23.374;2023-05-07T11:26:21;4.45;;;4.13;;
10461;SDS011;5278;42.656;23.374;2023-05-07T11:28:48;4.80;;;3.95;;
10461;SDS011;5278;42.656;23.374;2023-05-07T11:31:17;7.40;;;4.07;;
10461;SDS011;5278;42.656;23.374;2023-05-07T11:33:49;7.38;;;4.45;;
10461;SDS011;5278;42.656;23.374;2023-05-07T11:36:16;6.68;;;6.03;;
10461;SDS011;5278;42.656;23.374;2023-05-07T11:38:44;10.00;;;6.85;;
10461;SDS011;5278;42.656;23.374;2023-05-07T11:41:11;6.47;;;4.70;;
10461;SDS011;5278;42.656;23.374;2023-05-07T11:43:40;4.63;;;4.22;;
10461;SDS011;5278;42.656;23.374;2023-05-07T11:46:20;3.92;;;3.53;;
10461;SDS011;5278;42.656;23.374;2023-05-07T11:48:48;8.18;;;4.85;;
10461;SDS011;5278;42.656;23.374;2023-05-07T11:51:18;4.22;;;3.80;;
10461;SDS011;5278;42.656;23.374;2023-05-07T11:53:46;4.05;;;3.75;;
10461;SDS011;5278;42.656;23.374;2023-05-07T11:56:13;6.57;;;4.28;;
10461;SDS011;5278;42.656;23.374;2023-05-07T11:58:41;4.63;;;4.22;;
10461;SDS011;5278;42.656;23.374;2023-05-07T12:01:09;4.57;;;4.10;;
10461;SDS011;5278;42.656;23.374;2023-05-07T12:03:39;5.73;;;4.23;;
10461;SDS011;5278;42.656;23.374;2023-05-07T12:06:10;4.47;;;4.17;;
10461;SDS011;5278;42.656;23.374;2023-05-07T12:08:39;4.30;;;3.87;;
10461;SDS011;5278;42.656;23.374;2023-05-07T12:11:07;6.30;;;4.10;;
10461;SDS011;5278;42.656;23.374;2023-05-07T12:13:34;4.53;;;4.13;;
10461;SDS011;5278;42.656;23.374;2023-05-07T12:16:01;6.70;;;4.23;;
10461;SDS011;5278;42.656;23.374;2023-05-07T12:18:30;6.13;;;3.93;;
10461;SDS011;5278;42.656;23.374;2023-05-07T12:20:58;4.57;;;4.17;;
10461;SDS011;5278;42.656;23.374;2023-05-07T12:23:27;5.67;;;4.50;;
10461;SDS011;5278;42.656;23.374;2023-05-07T12:25:55;4.33;;;4.03;;
10461;SDS011;5278;42.656;23.374;2023-05-07T12:28:22;4.40;;;4.00;;
10461;SDS011;5278;42.656;23.374;2023-05-07T12:30:49;6.03;;;4.57;;
10461;SDS011;5278;42.656;23.374;2023-05-07T12:33:18;6.73;;;4.00;;
10461;SDS011;5278;42.656;23.374;2023-05-07T12:35:47;5.77;;;4.50;;
10461;SDS011;5278;42.656;23.374;2023-05-07T12:38:14;6.77;;;5.50;;
10461;SDS011;5278;42.656;23.374;2023-05-07T12:40:44;5.07;;;4.57;;
10461;SDS011;5278;42.656;23.374;2023-05-07T12:43:15;5.83;;;4.70;;
10461;SDS011;5278;42.656;23.374;2023-05-07T12:45:43;4.93;;;4.53;;
10461;SDS011;5278;42.656;23.374;2023-05-07T12:48:12;6.17;;;4.50;;
10461;SDS011;5278;42.656;23.374;2023-05-07T12:50:39;4.20;;;3.80;;
10461;SDS011;5278;42.656;23.374;2023-05-07T12:53:06;4.50;;;4.10;;
10461;SDS011;5278;42.656;23.374;2023-05-07T12:55:40;4.13;;;3.70;;
10461;SDS011;5278;42.656;23.374;2023-05-07T12:58:09;3.43;;;3.20;;
10461;SDS011;5278;42.656;23.374;2023-05-07T13:00:43;3.27;;;2.97;;
10461;SDS011;5278;42.656;23.374;2023-05-07T13:03:10;4.00;;;3.03;;
10461;SDS011;5278;42.656;23.374;2023-05-07T13:05:37;4.93;;;3.20;;
10461;SDS011;5278;42.656;23.374;2023-05-07T13:08:05;4.40;;;3.20;;
10461;SDS011;5278;42.656;23.374;2023-05-07T13:10:34;4.80;;;2.93;;
10461;SDS011;5278;42.656;23.374;2023-05-07T13:13:01;4.47;;;3.10;;
10461;SDS011;5278;42.656;23.374;2023-05-07T13:15:29;3.63;;;3.33;;
10461;SDS011;5278;42.656;23.374;2023-05-07T13:17:56;3.17;;;2.70;;
10461;SDS011;5278;42.656;23.374;2023-05-07T13:20:24;3.00;;;2.80;;
10461;SDS011;5278;42.656;23.374;2023-05-07T13:22:50;3.40;;;2.90;;
10461;SDS011;5278;42.656;23.374;2023-05-07T13:25:17;3.50;;;3.20;;
10461;SDS011;5278;42.656;23.374;2023-05-07T13:27:45;3.57;;;3.27;;
10461;SDS011;5278;42.656;23.374;2023-05-07T13:30:12;4.67;;;3.20;;
10461;SDS011;5278;42.656;23.374;2023-05-07T13:32:40;3.30;;;3.07;;
10461;SDS011;5278;42.656;23.374;2023-05-07T13:35:08;3.17;;;2.83;;
10461;SDS011;5278;42.656;23.374;2023-05-07T13:37:35;5.90;;;3.63;;
10461;SDS011;5278;42.656;23.374;2023-05-07T13:40:02;5.03;;;3.50;;
10461;SDS011;5278;42.656;23.374;2023-05-07T13:42:31;3.77;;;3.40;;
10461;SDS011;5278;42.656;23.374;2023-05-07T13:44:58;5.03;;;3.63;;
10461;SDS011;5278;42.656;23.374;2023-05-07T13:47:25;5.27;;;3.03;;
10461;SDS011;5278;42.656;23.374;2023-05-07T13:49:55;3.37;;;2.83;;
10461;SDS011;5278;42.656;23.374;2023-05-07T13:52:22;3.73;;;3.33;;
10461;SDS011;5278;42.656;23.374;2023-05-07T13:54:49;4.93;;;3.30;;
10461;SDS011;5278;42.656;23.374;2023-05-07T13:57:17;3.77;;;3.13;;
10461;SDS011;5278;42.656;23.374;2023-05-07T13:59:44;3.83;;;2.90;;
10461;SDS011;5278;42.656;23.374;2023-05-07T14:02:11;5.53;;;3.00;;
10461;SDS011;5278;42.656;23.374;2023-05-07T14:04:37;4.20;;;3.53;;
10461;SDS011;5278;42.656;23.374;2023-05-07T14:07:06;3.43;;;3.13;;
10461;SDS011;5278;42.656;23.374;2023-05-07T14:09:33;3.50;;;3.17;;
10461;SDS011;5278;42.656;23.374;2023-05-07T14:12:00;4.43;;;3.53;;
10461;SDS011;5278;42.656;23.374;2023-05-07T14:14:27;3.60;;;3.13;;
10461;SDS011;5278;42.656;23.374;2023-05-07T14:16:54;5.07;;;4.57;;
10461;SDS011;5278;42.656;23.374;2023-05-07T14:19:20;3.63;;;3.33;;
10461;SDS011;5278;42.656;23.374;2023-05-07T14:21:48;3.10;;;2.80;;
10461;SDS011;5278;42.656;23.374;2023-05-07T14:24:18;4.37;;;3.33;;
10461;SDS011;5278;42.656;23.374;2023-05-07T14:26:45;4.77;;;3.07;;
10461;SDS011;5278;42.656;23.374;2023-05-07T14:29:12;5.10;;;3.20;;
10461;SDS011;5278;42.656;23.374;2023-05-07T14:31:40;4.07;;;3.53;;
10461;SDS011;5278;42.656;23.374;2023-05-07T14:34:07;3.60;;;3.30;;
10461;SDS011;5278;42.656;23.374;2023-05-07T14:36:34;4.23;;;2.90;;
10461;SDS011;5278;42.656;23.374;2023-05-07T14:39:03;4.37;;;2.87;;
10461;SDS011;5278;42.656;23.374;2023-05-07T14:41:31;5.97;;;3.70;;
10461;SDS011;5278;42.656;23.374;2023-05-07T14:43:58;4.13;;;2.70;;
10461;SDS011;5278;42.656;23.374;2023-05-07T14:46:25;4.53;;;3.13;;
10461;SDS011;5278;42.656;23.374;2023-05-07T14:48:51;3.70;;;3.10;;
10461;SDS011;5278;42.656;23.374;2023-05-07T14:51:20;3.20;;;2.87;;
10461;SDS011;5278;42.656;23.374;2023-05-07T14:53:47;3.37;;;3.00;;
10461;SDS011;5278;42.656;23.374;2023-05-07T14:56:13;3.10;;;2.80;;
10461;SDS011;5278;42.656;23.374;2023-05-07T14:58:42;3.73;;;3.23;;
10461;SDS011;5278;42.656;23.374;2023-05-07T15:01:09;5.80;;;2.93;;
10461;SDS011;5278;42.656;23.374;2023-05-07T15:03:36;3.37;;;3.17;;
10461;SDS011;5278;42.656;23.374;2023-05-07T15:06:03;5.53;;;5.00;;
10461;SDS011;5278;42.656;23.374;2023-05-07T15:08:30;4.40;;;3.53;;
10461;SDS011;5278;42.656;23.374;2023-05-07T15:10:57;5.07;;;3.20;;